sensor_id;sensor_type;location;lat;lon;timestamp;pressure;altitude;pressure_sealevel;temperature;humidity
19236;BME280;9752;54.270;12.470;2024-01-30T00:01:48;103003.28;;;1.09;100.00
19236;BME280;9752;54.270;12.470;2024-01-30T00:06:52;102996.94;;;1.13;100.00
19236;BME280;9752;54.270;12.470;2024-01-30T00:11:54;103000.81;;;0.91;100.00
19236;BME280;9752;54.270;12.470;2024-01-30T00:16:55;103001.47;;;1.08;100.00
19236;BME280;9752;54.270;12.470;2024-01-30T00:21:58;102997.75;;;1.06;100.00
19236;BME280;9752;54.270;12.470;2024-01-30T00:27:00;102999.28;;;0.98;100.00
19236;BME280;9752;54.270;12.470;2024-01-30T00:32:02;102990.91;;;0.87;100.00
19236;BME280;9752;54.270;12.470;2024-01-30T00:37:05;102993.44;;;0.61;100.00
19236;BME280;9752;54.270;12.470;2024-01-30T00:42:07;103012.19;;;0.49;100.00
19236;BME280;9752;54.270;12.470;2024-01-30T00:47:08;103020.28;;;0.52;100.00
19236;BME280;9752;54.270;12.470;2024-01-30T00:52:11;103014.88;;;0.56;100.00
19236;BME280;9752;54.270;12.470;2024-01-30T00:57:13;103018.28;;;0.31;100.00
19236;BME280;9752;54.270;12.470;2024-01-30T01:02:15;103015.16;;;0.21;100.00
19236;BME280;9752;54.270;12.470;2024-01-30T01:07:19;103018.06;;;0.29;100.00
19236;BME280;9752;54.270;12.470;2024-01-30T01:12:20;103020.06;;;0.19;100.00
19236;BME280;9752;54.270;12.470;2024-01-30T01:17:22;103022.72;;;-0.05;100.00
19236;BME280;9752;54.270;12.470;2024-01-30T01:22:25;103022.84;;;-0.16;100.00
19236;BME280;9752;54.270;12.470;2024-01-30T01:27:26;103022.94;;;-0.22;100.00
19236;BME280;9752;54.270;12.470;2024-01-30T01:32:28;103019.53;;;-0.28;100.00
19236;BME280;9752;54.270;12.470;2024-01-30T01:37:31;103015.19;;;-0.35;100.00
19236;BME280;9752;54.270;12.470;2024-01-30T01:42:33;103017.13;;;-0.40;100.00
19236;BME280;9752;54.270;12.470;2024-01-30T01:47:36;103012.19;;;-0.38;100.00
19236;BME280;9752;54.270;12.470;2024-01-30T01:52:40;103014.41;;;-0.47;100.00
19236;BME280;9752;54.270;12.470;2024-01-30T01:57:42;103011.06;;;-0.58;100.00
19236;BME280;9752;54.270;12.470;2024-01-30T02:02:45;103012.00;;;-0.58;100.00
19236;BME280;9752;54.270;12.470;2024-01-30T02:07:48;103011.59;;;-0.67;100.00
19236;BME280;9752;54.270;12.470;2024-01-30T02:12:51;103013.34;;;-0.79;100.00
19236;BME280;9752;54.270;12.470;2024-01-30T02:17:53;103015.47;;;-0.82;100.00
19236;BME280;9752;54.270;12.470;2024-01-30T02:22:58;103018.84;;;-0.94;100.00
19236;BME280;9752;54.270;12.470;2024-01-30T02:28:02;103018.84;;;-0.94;100.00
19236;BME280;9752;54.270;12.470;2024-01-30T02:33:04;103016.75;;;-0.91;100.00
19236;BME280;9752;54.270;12.470;2024-01-30T02:38:07;103019.47;;;-0.89;100.00
19236;BME280;9752;54.270;12.470;2024-01-30T02:43:09;103032.16;;;-0.84;100.00
19236;BME280;9752;54.270;12.470;2024-01-30T02:48:10;103034.00;;;-0.83;100.00
19236;BME280;9752;54.270;12.470;2024-01-30T02:53:13;103035.84;;;-0.82;100.00
19236;BME280;9752;54.270;12.470;2024-01-30T02:58:15;103028.88;;;-0.77;100.00
19236;BME280;9752;54.270;12.470;2024-01-30T03:03:17;103036.28;;;-0.79;100.00
19236;BME280;9752;54.270;12.470;2024-01-30T03:08:20;103037.59;;;-0.69;100.00
19236;BME280;9752;54.270;12.470;2024-01-30T03:13:22;103038.56;;;-0.74;100.00
19236;BME280;9752;54.270;12.470;2024-01-30T03:18:25;103038.56;;;-0.74;100.00
19236;BME280;9752;54.270;12.470;2024-01-30T03:23:28;103047.78;;;-0.69;100.00
19236;BME280;9752;54.270;12.470;2024-01-30T03:28:29;103046.63;;;-0.47;100.00
19236;BME280;9752;54.270;12.470;2024-01-30T03:33:31;103040.34;;;0.12;100.00
19236;BME280;9752;54.270;12.470;2024-01-30T03:38:34;103039.38;;;0.48;100.00
19236;BME280;9752;54.270;12.470;2024-01-30T03:43:36;103035.03;;;0.73;100.00
19236;BME280;9752;54.270;12.470;2024-01-30T03:48:38;103038.66;;;0.93;100.00
19236;BME280;9752;54.270;12.470;2024-01-30T03:53:41;103043.38;;;1.16;100.00
19236;BME280;9752;54.270;12.470;2024-01-30T03:58:43;103042.63;;;1.17;100.00
19236;BME280;9752;54.270;12.470;2024-01-30T04:03:45;103049.09;;;1.33;100.00
19236;BME280;9752;54.270;12.470;2024-01-30T04:08:48;103053.09;;;1.44;100.00
19236;BME280;9752;54.270;12.470;2024-01-30T04:13:49;103044.25;;;1.42;100.00
19236;BME280;9752;54.270;12.470;2024-01-30T04:18:52;103031.78;;;1.38;100.00
19236;BME280;9752;54.270;12.470;2024-01-30T04:23:55;103035.09;;;1.37;100.00
19236;BME280;9752;54.270;12.470;2024-01-30T04:28:56;103025.03;;;1.51;100.00
19236;BME280;9752;54.270;12.470;2024-01-30T04:33:58;103017.44;;;1.59;100.00
19236;BME280;9752;54.270;12.470;2024-01-30T04:39:01;103008.84;;;1.71;100.00
19236;BME280;9752;54.270;12.470;2024-01-30T04:44:04;103004.19;;;1.81;100.00
19236;BME280;9752;54.270;12.470;2024-01-30T04:49:05;102995.69;;;1.88;100.00
19236;BME280;9752;54.270;12.470;2024-01-30T04:54:09;102990.19;;;2.05;100.00
19236;BME280;9752;54.270;12.470;2024-01-30T04:59:11;102990.25;;;2.12;100.00
19236;BME280;9752;54.270;12.470;2024-01-30T05:04:13;102981.88;;;2.13;100.00
19236;BME280;9752;54.270;12.470;2024-01-30T05:09:16;102973.13;;;2.18;100.00
19236;BME280;9752;54.270;12.470;2024-01-30T05:14:17;102990.41;;;2.26;100.00
19236;BME280;9752;54.270;12.470;2024-01-30T05:19:19;102990.06;;;2.30;100.00
19236;BME280;9752;54.270;12.470;2024-01-30T05:24:24;102990.22;;;2.45;100.00
19236;BME280;9752;54.270;12.470;2024-01-30T05:29:27;102984.34;;;2.66;100.00
19236;BME280;9752;54.270;12.470;2024-01-30T05:34:28;102982.91;;;2.75;100.00
19236;BME280;9752;54.270;12.470;2024-01-30T05:39:31;102978.44;;;2.87;100.00
19236;BME280;9752;54.270;12.470;2024-01-30T05:44:33;102968.25;;;3.01;100.00
19236;BME280;9752;54.270;12.470;2024-01-30T05:49:35;102973.78;;;3.04;100.00
19236;BME280;9752;54.270;12.470;2024-01-30T05:54:38;102978.16;;;3.05;100.00
19236;BME280;9752;54.270;12.470;2024-01-30T05:59:40;102973.09;;;3.12;100.00
19236;BME280;9752;54.270;12.470;2024-01-30T06:04:41;102973.84;;;3.19;100.00
19236;BME280;9752;54.270;12.470;2024-01-30T06:09:46;102972.09;;;3.32;100.00
19236;BME280;9752;54.270;12.470;2024-01-30T06:14:47;102974.31;;;3.43;100.00
19236;BME280;9752;54.270;12.470;2024-01-30T06:19:49;102975.09;;;3.49;100.00
19236;BME280;9752;54.270;12.470;2024-01-30T06:24:52;102970.72;;;3.56;100.00
19236;BME280;9752;54.270;12.470;2024-01-30T06:29:54;102970.19;;;3.65;100.00
19236;BME280;9752;54.270;12.470;2024-01-30T06:34:56;102960.47;;;3.56;100.00
19236;BME280;9752;54.270;12.470;2024-01-30T06:39:59;102955.53;;;3.57;100.00
19236;BME280;9752;54.270;12.470;2024-01-30T06:45:00;102966.88;;;3.59;100.00
19236;BME280;9752;54.270;12.470;2024-01-30T06:50:02;103027.94;;;3.62;100.00
19236;BME280;9752;54.270;12.470;2024-01-30T06:55:06;103021.50;;;3.58;100.00
19236;BME280;9752;54.270;12.470;2024-01-30T07:00:08;103030.28;;;3.60;100.00
19236;BME280;9752;54.270;12.470;2024-01-30T07:05:10;103031.94;;;3.60;100.00
19236;BME280;9752;54.270;12.470;2024-01-30T07:10:13;103023.09;;;3.50;100.00
19236;BME280;9752;54.270;12.470;2024-01-30T07:15:15;103030.38;;;3.06;100.00
19236;BME280;9752;54.270;12.470;2024-01-30T07:20:20;103030.31;;;2.71;100.00
19236;BME280;9752;54.270;12.470;2024-01-30T07:25:23;103034.13;;;2.48;100.00
19236;BME280;9752;54.270;12.470;2024-01-30T07:30:27;103025.75;;;2.16;100.00
19236;BME280;9752;54.270;12.470;2024-01-30T07:35:28;103032.81;;;1.91;100.00
19236;BME280;9752;54.270;12.470;2024-01-30T07:40:31;103044.03;;;1.79;100.00
19236;BME280;9752;54.270;12.470;2024-01-30T07:45:33;103062.94;;;1.74;100.00
19236;BME280;9752;54.270;12.470;2024-01-30T07:50:35;103068.38;;;1.70;100.00
19236;BME280;9752;54.270;12.470;2024-01-30T07:55:38;103075.75;;;1.74;100.00
19236;BME280;9752;54.270;12.470;2024-01-30T08:00:39;103085.66;;;1.78;100.00
19236;BME280;9752;54.270;12.470;2024-01-30T08:05:41;103084.53;;;1.89;100.00
19236;BME280;9752;54.270;12.470;2024-01-30T08:10:44;103091.44;;;2.03;100.00
19236;BME280;9752;54.270;12.470;2024-01-30T08:15:46;103131.16;;;2.19;100.00
19236;BME280;9752;54.270;12.470;2024-01-30T08:20:48;103135.72;;;2.34;100.00
19236;BME280;9752;54.270;12.470;2024-01-30T08:25:50;103135.47;;;2.46;100.00
19236;BME280;9752;54.270;12.470;2024-01-30T08:30:52;103124.66;;;2.61;100.00
19236;BME280;9752;54.270;12.470;2024-01-30T08:35:54;103135.06;;;2.76;100.00
19236;BME280;9752;54.270;12.470;2024-01-30T08:40:57;103130.31;;;2.79;100.00
19236;BME280;9752;54.270;12.470;2024-01-30T08:45:59;103130.78;;;2.89;100.00
19236;BME280;9752;54.270;12.470;2024-01-30T08:51:00;103135.31;;;3.04;100.00
19236;BME280;9752;54.270;12.470;2024-01-30T08:56:04;103135.63;;;3.00;100.00
19236;BME280;9752;54.270;12.470;2024-01-30T09:01:07;103136.09;;;3.10;100.00
19236;BME280;9752;54.270;12.470;2024-01-30T09:06:09;103130.44;;;3.13;100.00
19236;BME280;9752;54.270;12.470;2024-01-30T09:11:13;103117.50;;;3.26;100.00
19236;BME280;9752;54.270;12.470;2024-01-30T09:16:15;103116.16;;;3.42;100.00
19236;BME280;9752;54.270;12.470;2024-01-30T09:21:17;103107.41;;;3.82;100.00
19236;BME280;9752;54.270;12.470;2024-01-30T09:26:20;103095.59;;;4.11;100.00
19236;BME280;9752;54.270;12.470;2024-01-30T09:31:22;103076.22;;;4.35;100.00
19236;BME280;9752;54.270;12.470;2024-01-30T09:36:24;103059.31;;;4.44;100.00
19236;BME280;9752;54.270;12.470;2024-01-30T09:41:27;103040.09;;;4.69;100.00
19236;BME280;9752;54.270;12.470;2024-01-30T09:46:30;103024.44;;;4.96;100.00
19236;BME280;9752;54.270;12.470;2024-01-30T09:51:33;103009.84;;;5.33;100.00
19236;BME280;9752;54.270;12.470;2024-01-30T09:56:37;102952.09;;;5.45;100.00
19236;BME280;9752;54.270;12.470;2024-01-30T10:01:39;102895.91;;;5.64;100.00
19236;BME280;9752;54.270;12.470;2024-01-30T10:06:41;102899.13;;;5.77;100.00
19236;BME280;9752;54.270;12.470;2024-01-30T10:11:44;102882.38;;;6.11;100.00
19236;BME280;9752;54.270;12.470;2024-01-30T10:16:46;102870.09;;;6.24;100.00
19236;BME280;9752;54.270;12.470;2024-01-30T10:21:48;102864.00;;;6.47;100.00
19236;BME280;9752;54.270;12.470;2024-01-30T10:26:51;102854.00;;;6.50;100.00
19236;BME280;9752;54.270;12.470;2024-01-30T10:31:59;102851.09;;;6.63;100.00
19236;BME280;9752;54.270;12.470;2024-01-30T10:37:07;102837.53;;;6.73;100.00
19236;BME280;9752;54.270;12.470;2024-01-30T10:42:15;102827.97;;;6.88;100.00
19236;BME280;9752;54.270;12.470;2024-01-30T10:47:25;102817.53;;;7.11;100.00
19236;BME280;9752;54.270;12.470;2024-01-30T10:52:28;102807.97;;;7.34;100.00
19236;BME280;9752;54.270;12.470;2024-01-30T10:57:34;102794.94;;;7.41;100.00
19236;BME280;9752;54.270;12.470;2024-01-30T11:02:37;102778.81;;;7.35;100.00
19236;BME280;9752;54.270;12.470;2024-01-30T11:07:40;102774.97;;;7.48;100.00
19236;BME280;9752;54.270;12.470;2024-01-30T11:12:43;102765.81;;;7.42;100.00
19236;BME280;9752;54.270;12.470;2024-01-30T11:17:50;102751.34;;;7.69;100.00
19236;BME280;9752;54.270;12.470;2024-01-30T11:22:55;102738.81;;;7.90;100.00
19236;BME280;9752;54.270;12.470;2024-01-30T11:27:58;102728.28;;;7.79;100.00
19236;BME280;9752;54.270;12.470;2024-01-30T11:33:01;102728.84;;;7.68;100.00
19236;BME280;9752;54.270;12.470;2024-01-30T11:38:06;102726.47;;;7.78;100.00
19236;BME280;9752;54.270;12.470;2024-01-30T11:43:09;102719.16;;;7.74;100.00
19236;BME280;9752;54.270;12.470;2024-01-30T11:48:12;102706.75;;;7.88;100.00
19236;BME280;9752;54.270;12.470;2024-01-30T11:53:13;102695.50;;;7.96;100.00
19236;BME280;9752;54.270;12.470;2024-01-30T11:58:16;102687.91;;;8.06;100.00
19236;BME280;9752;54.270;12.470;2024-01-30T12:03:18;102688.81;;;7.98;100.00
19236;BME280;9752;54.270;12.470;2024-01-30T12:08:20;102682.91;;;8.08;100.00
19236;BME280;9752;54.270;12.470;2024-01-30T12:13:23;102674.88;;;8.22;100.00
19236;BME280;9752;54.270;12.470;2024-01-30T12:18:26;102678.81;;;8.18;100.00
19236;BME280;9752;54.270;12.470;2024-01-30T12:23:28;102687.34;;;8.26;100.00
19236;BME280;9752;54.270;12.470;2024-01-30T12:28:31;102672.28;;;8.22;100.00
19236;BME280;9752;54.270;12.470;2024-01-30T12:33:33;102667.25;;;8.41;100.00
19236;BME280;9752;54.270;12.470;2024-01-30T12:38:34;102658.31;;;8.46;100.00
19236;BME280;9752;54.270;12.470;2024-01-30T12:43:38;102653.13;;;8.55;100.00
19236;BME280;9752;54.270;12.470;2024-01-30T12:48:39;102648.25;;;8.49;100.00
19236;BME280;9752;54.270;12.470;2024-01-30T12:53:41;102638.97;;;8.51;100.00
19236;BME280;9752;54.270;12.470;2024-01-30T12:58:44;102640.34;;;8.56;100.00
19236;BME280;9752;54.270;12.470;2024-01-30T13:03:46;102637.72;;;8.74;100.00
19236;BME280;9752;54.270;12.470;2024-01-30T13:08:48;102638.66;;;8.66;100.00
19236;BME280;9752;54.270;12.470;2024-01-30T13:13:51;102642.63;;;8.71;100.00
19236;BME280;9752;54.270;12.470;2024-01-30T13:18:53;102633.34;;;8.64;100.00
19236;BME280;9752;54.270;12.470;2024-01-30T13:23:55;102628.16;;;8.73;100.00
19236;BME280;9752;54.270;12.470;2024-01-30T13:28:58;102633.78;;;8.69;100.00
19236;BME280;9752;54.270;12.470;2024-01-30T13:34:00;102627.41;;;8.65;100.00
19236;BME280;9752;54.270;12.470;2024-01-30T13:39:02;102622.84;;;8.63;100.00
19236;BME280;9752;54.270;12.470;2024-01-30T13:44:06;102614.75;;;8.68;100.00
19236;BME280;9752;54.270;12.470;2024-01-30T13:49:08;102606.25;;;8.69;100.00
19236;BME280;9752;54.270;12.470;2024-01-30T13:54:10;102608.53;;;8.75;100.00
19236;BME280;9752;54.270;12.470;2024-01-30T13:59:13;102600.84;;;8.94;100.00
19236;BME280;9752;54.270;12.470;2024-01-30T14:04:15;102601.66;;;8.75;100.00
19236;BME280;9752;54.270;12.470;2024-01-30T14:09:16;102604.25;;;8.75;100.00
19236;BME280;9752;54.270;12.470;2024-01-30T14:14:19;102605.19;;;8.58;100.00
19236;BME280;9752;54.270;12.470;2024-01-30T14:19:21;102605.94;;;8.40;100.00
19236;BME280;9752;54.270;12.470;2024-01-30T14:24:23;102610.53;;;8.34;100.00
19236;BME280;9752;54.270;12.470;2024-01-30T14:29:26;102626.34;;;8.28;100.00
19236;BME280;9752;54.270;12.470;2024-01-30T14:34:27;102614.19;;;8.18;100.00
19236;BME280;9752;54.270;12.470;2024-01-30T14:39:29;102599.44;;;8.00;100.00
19236;BME280;9752;54.270;12.470;2024-01-30T14:44:32;102609.19;;;8.02;100.00
19236;BME280;9752;54.270;12.470;2024-01-30T14:49:34;102605.84;;;7.95;100.00
19236;BME280;9752;54.270;12.470;2024-01-30T14:54:35;102620.38;;;7.77;100.00
19236;BME280;9752;54.270;12.470;2024-01-30T14:59:38;102622.34;;;7.62;100.00
19236;BME280;9752;54.270;12.470;2024-01-30T15:04:40;102638.25;;;7.49;100.00
19236;BME280;9752;54.270;12.470;2024-01-30T15:09:42;102636.28;;;7.47;100.00
19236;BME280;9752;54.270;12.470;2024-01-30T15:14:45;102630.66;;;7.42;100.00
19236;BME280;9752;54.270;12.470;2024-01-30T15:19:51;102632.44;;;7.34;100.00
19236;BME280;9752;54.270;12.470;2024-01-30T15:24:52;102617.06;;;7.27;100.00
19236;BME280;9752;54.270;12.470;2024-01-30T15:29:55;102606.13;;;7.21;100.00
19236;BME280;9752;54.270;12.470;2024-01-30T15:34:57;102608.38;;;7.18;100.00
19236;BME280;9752;54.270;12.470;2024-01-30T15:40:01;102612.72;;;7.01;100.00
19236;BME280;9752;54.270;12.470;2024-01-30T15:45:04;102617.06;;;6.94;100.00
19236;BME280;9752;54.270;12.470;2024-01-30T15:50:07;102622.22;;;6.94;100.00
19236;BME280;9752;54.270;12.470;2024-01-30T15:55:09;102614.81;;;6.97;100.00
19236;BME280;9752;54.270;12.470;2024-01-30T16:00:14;102628.91;;;6.92;100.00
19236;BME280;9752;54.270;12.470;2024-01-30T16:05:16;102629.34;;;6.88;100.00
19236;BME280;9752;54.270;12.470;2024-01-30T16:10:18;102621.00;;;6.90;100.00
19236;BME280;9752;54.270;12.470;2024-01-30T16:15:21;102620.38;;;6.84;100.00
19236;BME280;9752;54.270;12.470;2024-01-30T16:20:23;102622.47;;;6.79;100.00
19236;BME280;9752;54.270;12.470;2024-01-30T16:25:24;102647.22;;;6.86;100.00
19236;BME280;9752;54.270;12.470;2024-01-30T16:30:27;102666.03;;;7.10;100.00
19236;BME280;9752;54.270;12.470;2024-01-30T16:35:29;102658.53;;;7.29;100.00
19236;BME280;9752;54.270;12.470;2024-01-30T16:40:30;102642.59;;;7.33;100.00
19236;BME280;9752;54.270;12.470;2024-01-30T16:45:35;102648.84;;;7.43;100.00
19236;BME280;9752;54.270;12.470;2024-01-30T16:50:37;102651.59;;;7.45;100.00
19236;BME280;9752;54.270;12.470;2024-01-30T16:55:38;102654.50;;;7.48;100.00
19236;BME280;9752;54.270;12.470;2024-01-30T17:00:41;102651.03;;;7.48;100.00
19236;BME280;9752;54.270;12.470;2024-01-30T17:05:43;102658.00;;;7.49;100.00
19236;BME280;9752;54.270;12.470;2024-01-30T17:10:45;102665.28;;;7.53;100.00
19236;BME280;9752;54.270;12.470;2024-01-30T17:15:48;102669.59;;;7.61;100.00
19236;BME280;9752;54.270;12.470;2024-01-30T17:20:50;102669.75;;;7.71;100.00
19236;BME280;9752;54.270;12.470;2024-01-30T17:25:51;102675.72;;;7.88;100.00
19236;BME280;9752;54.270;12.470;2024-01-30T17:30:54;102679.38;;;7.98;100.00
19236;BME280;9752;54.270;12.470;2024-01-30T17:35:56;102673.00;;;8.04;100.00
19236;BME280;9752;54.270;12.470;2024-01-30T17:40:58;102678.38;;;8.14;100.00
19236;BME280;9752;54.270;12.470;2024-01-30T17:46:01;102679.09;;;8.13;100.00
19236;BME280;9752;54.270;12.470;2024-01-30T17:51:04;102690.50;;;8.15;100.00
19236;BME280;9752;54.270;12.470;2024-01-30T17:56:06;102695.38;;;8.20;100.00
19236;BME280;9752;54.270;12.470;2024-01-30T18:01:12;102694.03;;;8.24;100.00
19236;BME280;9752;54.270;12.470;2024-01-30T18:06:15;102696.16;;;8.28;100.00
19236;BME280;9752;54.270;12.470;2024-01-30T18:11:16;102697.06;;;8.29;100.00
19236;BME280;9752;54.270;12.470;2024-01-30T18:16:19;102689.94;;;8.35;100.00
19236;BME280;9752;54.270;12.470;2024-01-30T18:21:22;102686.72;;;8.37;100.00
19236;BME280;9752;54.270;12.470;2024-01-30T18:26:23;102683.06;;;8.35;100.00
19236;BME280;9752;54.270;12.470;2024-01-30T18:31:27;102686.41;;;8.34;100.00
19236;BME280;9752;54.270;12.470;2024-01-30T18:36:29;102680.66;;;8.37;100.00
19236;BME280;9752;54.270;12.470;2024-01-30T18:41:31;102683.25;;;8.37;100.00
19236;BME280;9752;54.270;12.470;2024-01-30T18:46:34;102686.09;;;8.40;100.00
19236;BME280;9752;54.270;12.470;2024-01-30T18:51:36;102685.09;;;8.47;100.00
19236;BME280;9752;54.270;12.470;2024-01-30T18:56:37;102694.06;;;8.50;100.00
19236;BME280;9752;54.270;12.470;2024-01-30T19:01:40;102684.19;;;8.46;100.00
19236;BME280;9752;54.270;12.470;2024-01-30T19:06:42;102682.47;;;8.38;100.00
19236;BME280;9752;54.270;12.470;2024-01-30T19:11:44;102667.56;;;8.18;100.00
19236;BME280;9752;54.270;12.470;2024-01-30T19:16:47;102669.97;;;7.99;100.00
19236;BME280;9752;54.270;12.470;2024-01-30T19:21:48;102675.13;;;7.90;100.00
19236;BME280;9752;54.270;12.470;2024-01-30T19:26:50;102673.91;;;7.95;100.00
19236;BME280;9752;54.270;12.470;2024-01-30T19:31:53;102665.72;;;7.99;100.00
19236;BME280;9752;54.270;12.470;2024-01-30T19:36:55;102673.81;;;8.20;100.00
19236;BME280;9752;54.270;12.470;2024-01-30T19:41:57;102679.13;;;8.30;100.00
19236;BME280;9752;54.270;12.470;2024-01-30T19:47:00;102684.47;;;8.40;100.00
19236;BME280;9752;54.270;12.470;2024-01-30T19:52:04;102681.88;;;8.49;100.00
19236;BME280;9752;54.270;12.470;2024-01-30T19:57:07;102684.63;;;8.51;100.00
19236;BME280;9752;54.270;12.470;2024-01-30T20:02:11;102690.09;;;8.45;100.00
19236;BME280;9752;54.270;12.470;2024-01-30T20:07:20;102698.47;;;8.51;100.00
19236;BME280;9752;54.270;12.470;2024-01-30T20:12:22;102687.81;;;8.57;100.00
19236;BME280;9752;54.270;12.470;2024-01-30T20:17:25;102695.25;;;8.63;100.00
19236;BME280;9752;54.270;12.470;2024-01-30T20:22:26;102698.16;;;8.57;100.00
19236;BME280;9752;54.270;12.470;2024-01-30T20:27:28;102694.97;;;8.42;100.00
19236;BME280;9752;54.270;12.470;2024-01-30T20:32:31;102700.28;;;8.44;100.00
19236;BME280;9752;54.270;12.470;2024-01-30T20:37:33;102707.16;;;8.43;100.00
19236;BME280;9752;54.270;12.470;2024-01-30T20:42:35;102696.16;;;8.37;100.00
19236;BME280;9752;54.270;12.470;2024-01-30T20:47:38;102701.03;;;8.34;100.00
19236;BME280;9752;54.270;12.470;2024-01-30T20:52:40;102699.22;;;8.33;100.00
19236;BME280;9752;54.270;12.470;2024-01-30T20:57:41;102701.34;;;8.37;100.00
19236;BME280;9752;54.270;12.470;2024-01-30T21:02:45;102711.69;;;8.37;100.00
19236;BME280;9752;54.270;12.470;2024-01-30T21:07:46;102712.41;;;8.36;100.00
19236;BME280;9752;54.270;12.470;2024-01-30T21:12:48;102705.56;;;8.36;100.00
19236;BME280;9752;54.270;12.470;2024-01-30T21:17:51;102707.31;;;8.45;100.00
19236;BME280;9752;54.270;12.470;2024-01-30T21:22:53;102698.94;;;8.47;100.00
19236;BME280;9752;54.270;12.470;2024-01-30T21:27:54;102694.66;;;8.39;100.00
19236;BME280;9752;54.270;12.470;2024-01-30T21:32:57;102709.13;;;8.46;100.00
19236;BME280;9752;54.270;12.470;2024-01-30T21:38:00;102712.75;;;8.39;100.00
19236;BME280;9752;54.270;12.470;2024-01-30T21:43:03;102707.25;;;8.18;100.00
19236;BME280;9752;54.270;12.470;2024-01-30T21:48:07;102707.38;;;8.02;100.00
19236;BME280;9752;54.270;12.470;2024-01-30T21:53:09;102718.63;;;8.03;100.00
19236;BME280;9752;54.270;12.470;2024-01-30T21:58:10;102712.38;;;8.01;100.00
19236;BME280;9752;54.270;12.470;2024-01-30T22:03:13;102718.63;;;8.03;100.00
19236;BME280;9752;54.270;12.470;2024-01-30T22:08:15;102714.84;;;8.08;100.00
19236;BME280;9752;54.270;12.470;2024-01-30T22:13:17;102713.94;;;8.16;100.00
19236;BME280;9752;54.270;12.470;2024-01-30T22:18:21;102716.09;;;8.29;100.00
19236;BME280;9752;54.270;12.470;2024-01-30T22:23:23;102711.97;;;8.40;100.00
19236;BME280;9752;54.270;12.470;2024-01-30T22:28:25;102709.88;;;8.45;100.00
19236;BME280;9752;54.270;12.470;2024-01-30T22:33:28;102713.38;;;8.45;100.00
19236;BME280;9752;54.270;12.470;2024-01-30T22:38:29;102709.28;;;8.47;100.00
19236;BME280;9752;54.270;12.470;2024-01-30T22:43:33;102710.03;;;8.55;100.00
19236;BME280;9752;54.270;12.470;2024-01-30T22:48:36;102710.19;;;8.65;100.00
19236;BME280;9752;54.270;12.470;2024-01-30T22:53:37;102707.00;;;8.68;100.00
19236;BME280;9752;54.270;12.470;2024-01-30T22:58:39;102698.59;;;8.70;100.00
19236;BME280;9752;54.270;12.470;2024-01-30T23:03:42;102715.81;;;8.70;100.00
19236;BME280;9752;54.270;12.470;2024-01-30T23:08:43;102713.53;;;8.64;100.00
19236;BME280;9752;54.270;12.470;2024-01-30T23:13:45;102711.56;;;8.62;100.00
19236;BME280;9752;54.270;12.470;2024-01-30T23:18:48;102707.88;;;8.68;100.00
19236;BME280;9752;54.270;12.470;2024-01-30T23:23:50;102698.91;;;8.65;100.00
19236;BME280;9752;54.270;12.470;2024-01-30T23:28:52;102706.84;;;8.57;100.00
19236;BME280;9752;54.270;12.470;2024-01-30T23:33:55;102708.03;;;8.61;100.00
19236;BME280;9752;54.270;12.470;2024-01-30T23:38:57;102707.28;;;8.62;100.00
19236;BME280;9752;54.270;12.470;2024-01-30T23:43:58;102703.19;;;8.55;100.00
19236;BME280;9752;54.270;12.470;2024-01-30T23:49:01;102700.78;;;8.48;100.00
19236;BME280;9752;54.270;12.470;2024-01-30T23:54:03;102716.56;;;8.51;100.00
19236;BME280;9752;54.270;12.470;2024-01-30T23:59:05;102708.81;;;8.51;100.00
